createdAt,value
2023-03-13T00:00:53.019Z,10.25
2023-03-13T00:02:54.727Z,10.43
2023-03-13T00:04:56.378Z,12.57
2023-03-13T00:06:59.431Z,8.20
2023-03-13T00:09:02.362Z,9.25
2023-03-13T00:11:05.220Z,9.73
2023-03-13T00:13:09.698Z,11.90
2023-03-13T00:15:11.779Z,12.10
2023-03-13T00:17:13.419Z,14.50
2023-03-13T00:19:15.702Z,8.93
2023-03-13T00:21:18.723Z,8.90
2023-03-13T00:23:21.687Z,9.05
2023-03-13T00:25:23.271Z,7.80
2023-03-13T00:27:24.870Z,11.77
2023-03-13T00:29:26.505Z,13.82
2023-03-13T00:31:30.197Z,10.63
2023-03-13T00:33:32.937Z,8.07
2023-03-13T00:35:36.243Z,15.18
2023-03-13T00:37:37.969Z,10.67
2023-03-13T00:39:40.913Z,11.60
2023-03-13T00:41:42.538Z,14.43
2023-03-13T00:43:45.295Z,12.70
2023-03-13T00:45:46.916Z,12.37
2023-03-13T00:47:48.583Z,8.90
2023-03-13T00:49:50.214Z,11.68
2023-03-13T00:51:51.820Z,15.75
2023-03-13T00:53:53.895Z,10.38
2023-03-13T00:55:58.777Z,7.07
2023-03-13T00:58:00.491Z,9.63
2023-03-13T01:00:02.135Z,8.23
2023-03-13T01:02:03.842Z,9.53
2023-03-13T01:04:07.278Z,11.50
2023-03-13T01:06:11.401Z,11.05
2023-03-13T01:08:13.113Z,10.87
2023-03-13T01:10:14.796Z,10.23
2023-03-13T01:12:17.768Z,11.10
2023-03-13T01:14:20.518Z,8.00
2023-03-13T01:16:22.845Z,12.03
2023-03-13T01:18:24.485Z,8.88
2023-03-13T01:20:26.063Z,7.67
2023-03-13T01:22:27.648Z,12.00
2023-03-13T01:24:29.228Z,9.13
2023-03-13T01:26:30.902Z,9.32
2023-03-13T01:28:35.045Z,7.82
2023-03-13T01:30:36.713Z,8.05
2023-03-13T01:32:38.536Z,11.10
2023-03-13T01:34:40.124Z,8.20
2023-03-13T01:36:41.852Z,8.02
2023-03-13T01:38:43.818Z,7.70
2023-03-13T01:40:47.514Z,9.55
2023-03-13T01:42:50.900Z,7.33
2023-03-13T01:44:55.646Z,12.50
2023-03-13T01:46:57.224Z,12.97
2023-03-13T01:49:03.074Z,12.13
2023-03-13T01:51:08.340Z,9.90
2023-03-13T01:53:10.695Z,6.77
2023-03-13T01:55:16.658Z,9.27
2023-03-13T01:57:25.601Z,8.95
2023-03-13T01:59:30.343Z,10.45
2023-03-13T02:01:33.569Z,9.30
2023-03-13T02:03:37.210Z,11.87
2023-03-13T02:05:40.774Z,6.68
2023-03-13T02:07:47.464Z,8.63
2023-03-13T02:09:52.513Z,7.73
2023-03-13T02:12:01.173Z,6.43
2023-03-13T02:14:04.628Z,11.88
2023-03-13T02:16:07.603Z,8.15
2023-03-13T02:18:11.407Z,10.63
2023-03-13T02:20:15.540Z,6.37
2023-03-13T02:22:23.167Z,8.00
2023-03-13T02:24:32.208Z,9.30
2023-03-13T02:26:37.490Z,8.93
2023-03-13T02:28:39.327Z,8.98
2023-03-13T02:30:43.294Z,8.32
2023-03-13T02:32:46.298Z,6.87
2023-03-13T02:34:51.617Z,9.33
2023-03-13T02:36:53.496Z,9.40
2023-03-13T02:38:58.823Z,6.30
2023-03-13T02:41:02.727Z,8.32
2023-03-13T02:43:09.372Z,8.90
2023-03-13T02:45:14.272Z,4.68
2023-03-13T02:47:19.252Z,8.00
2023-03-13T02:49:24.066Z,9.70
2023-03-13T02:51:29.684Z,10.27
2023-03-13T02:53:33.426Z,9.83
2023-03-13T02:55:39.477Z,10.18
2023-03-13T02:57:41.115Z,8.07
2023-03-13T02:59:44.144Z,7.03
2023-03-13T03:01:45.988Z,9.23
2023-03-13T03:03:47.715Z,10.25
2023-03-13T03:05:49.295Z,6.73
2023-03-13T03:07:51.676Z,5.63
2023-03-13T03:09:53.305Z,10.70
2023-03-13T03:11:54.934Z,14.27
2023-03-13T03:13:56.507Z,10.80
2023-03-13T03:15:59.676Z,9.80
2023-03-13T03:18:01.351Z,6.45
2023-03-13T03:20:03.320Z,8.97
2023-03-13T03:22:04.934Z,11.17
2023-03-13T03:24:07.375Z,7.75
2023-03-13T03:26:09.131Z,9.68
2023-03-13T03:28:10.741Z,12.27
2023-03-13T03:30:12.804Z,8.85
2023-03-13T03:32:16.009Z,9.88
2023-03-13T03:34:17.645Z,6.70
2023-03-13T03:36:21.761Z,14.50
2023-03-13T03:38:23.329Z,6.18
2023-03-13T03:40:24.931Z,7.45
2023-03-13T03:42:26.479Z,8.00
2023-03-13T03:44:27.982Z,6.20
2023-03-13T03:46:29.667Z,8.43
2023-03-13T03:48:32.810Z,5.55
2023-03-13T03:50:40.477Z,7.13
2023-03-13T03:52:42.049Z,5.22
2023-03-13T03:54:43.928Z,5.20
2023-03-13T03:56:45.580Z,8.48
2023-03-13T03:58:47.155Z,6.10
2023-03-13T04:00:49.375Z,6.10
2023-03-13T04:02:51.014Z,8.13
2023-03-13T04:04:54.170Z,3.23
2023-03-13T04:06:55.757Z,8.43
2023-03-13T04:08:57.509Z,4.47
2023-03-13T04:11:00.850Z,5.95
2023-03-13T04:13:02.413Z,6.07
2023-03-13T04:15:04.599Z,4.78
2023-03-13T04:17:06.247Z,6.65
2023-03-13T04:19:07.961Z,4.75
2023-03-13T04:21:10.950Z,6.57
2023-03-13T04:23:12.751Z,6.87
2023-03-13T04:25:14.362Z,4.95
2023-03-13T04:27:16.023Z,5.57
2023-03-13T04:29:17.604Z,5.10
2023-03-13T04:31:19.222Z,4.40
2023-03-13T04:33:20.868Z,6.40
2023-03-13T04:35:22.740Z,5.25
2023-03-13T04:37:25.688Z,4.65
2023-03-13T04:39:27.208Z,7.45
2023-03-13T04:41:28.806Z,9.83
2023-03-13T04:43:30.486Z,5.50
2023-03-13T04:45:32.051Z,4.55
2023-03-13T04:47:33.706Z,4.53
2023-03-13T04:49:35.303Z,7.07
2023-03-13T04:51:36.990Z,4.60
2023-03-13T04:53:40.280Z,5.77
2023-03-13T04:55:42.419Z,3.70
2023-03-13T04:57:43.966Z,4.20
2023-03-13T04:59:45.574Z,5.40
2023-03-13T05:01:47.449Z,5.50
2023-03-13T05:03:51.347Z,8.60
2023-03-13T05:05:53.044Z,8.60
2023-03-13T05:07:54.680Z,9.52
2023-03-13T05:09:57.793Z,6.60
2023-03-13T05:11:59.430Z,7.35
2023-03-13T05:14:01.115Z,4.85
2023-03-13T05:16:03.446Z,5.70
2023-03-13T05:18:05.432Z,5.15
2023-03-13T05:20:08.231Z,4.57
2023-03-13T05:22:10.298Z,7.15
2023-03-13T05:24:11.938Z,5.07
2023-03-13T05:26:14.870Z,5.28
2023-03-13T05:28:16.467Z,5.07
2023-03-13T05:30:18.135Z,5.40
2023-03-13T05:32:19.790Z,5.05
2023-03-13T05:34:21.398Z,4.50
2023-03-13T05:36:23.043Z,4.30
2023-03-13T05:38:27.708Z,8.25
2023-03-13T05:40:29.355Z,6.22
2023-03-13T05:42:32.311Z,8.25
2023-03-13T05:44:33.897Z,5.15
2023-03-13T05:46:35.589Z,7.53
2023-03-13T05:48:37.489Z,5.30
2023-03-13T05:50:39.095Z,4.25
2023-03-13T05:52:40.678Z,5.00
2023-03-13T05:54:42.283Z,6.32
2023-03-13T05:56:43.898Z,4.93
2023-03-13T05:58:46.869Z,5.97
2023-03-13T06:00:48.525Z,6.00
2023-03-13T06:02:50.218Z,6.40
2023-03-13T06:04:52.087Z,3.60
2023-03-13T06:06:53.906Z,3.85
2023-03-13T06:08:55.437Z,3.07
2023-03-13T06:10:59.397Z,4.10
2023-03-13T06:13:13.739Z,3.53
2023-03-13T06:15:21.808Z,3.83
2023-03-13T06:17:23.398Z,3.15
2023-03-13T06:19:25.020Z,3.28
2023-03-13T06:21:26.592Z,1.73
2023-03-13T06:23:28.830Z,3.40
2023-03-13T06:25:30.417Z,5.30
2023-03-13T06:27:32.011Z,4.88
2023-03-13T06:29:33.588Z,4.25
2023-03-13T06:31:36.895Z,4.03
2023-03-13T06:33:38.518Z,2.85
2023-03-13T06:35:54.808Z,3.53
2023-03-13T06:37:57.766Z,2.22
2023-03-13T06:39:59.469Z,2.78
2023-03-13T06:42:01.031Z,4.68
2023-03-13T06:44:02.908Z,2.50
2023-03-13T06:46:05.064Z,1.80
2023-03-13T06:48:08.068Z,3.80
2023-03-13T06:50:10.883Z,2.58
2023-03-13T06:52:12.424Z,2.67
2023-03-13T06:54:14.097Z,3.23
2023-03-13T06:56:15.673Z,3.40
2023-03-13T06:58:30.993Z,3.15
2023-03-13T07:00:33.866Z,2.10
2023-03-13T07:02:35.514Z,3.83
2023-03-13T07:04:38.681Z,2.37
2023-03-13T07:06:40.591Z,1.83
2023-03-13T07:08:42.618Z,2.30
2023-03-13T07:10:44.216Z,2.30
2023-03-13T07:12:45.803Z,4.85
2023-03-13T07:14:47.369Z,1.88
2023-03-13T07:16:49.065Z,2.53
2023-03-13T07:18:51.221Z,2.03
2023-03-13T07:20:55.475Z,2.30
2023-03-13T07:22:56.986Z,2.33
2023-03-13T07:24:58.480Z,2.42
2023-03-13T07:27:07.161Z,3.33
2023-03-13T07:29:08.878Z,1.83
2023-03-13T07:31:13.224Z,2.88
2023-03-13T07:33:14.962Z,2.25
2023-03-13T07:35:16.774Z,2.15
2023-03-13T07:37:19.676Z,1.70
2023-03-13T07:39:21.296Z,2.40
2023-03-13T07:41:22.964Z,5.75
2023-03-13T07:43:25.834Z,3.40
2023-03-13T07:45:27.408Z,2.50
2023-03-13T07:47:28.965Z,1.80
2023-03-13T07:49:31.243Z,2.50
2023-03-13T07:51:42.939Z,2.20
2023-03-13T07:53:47.294Z,2.80
2023-03-13T07:55:56.348Z,2.40
2023-03-13T07:57:57.910Z,2.88
2023-03-13T07:59:59.521Z,2.40
2023-03-13T08:02:01.723Z,2.90
2023-03-13T08:04:03.564Z,2.40
2023-03-13T08:06:06.999Z,3.40
2023-03-13T08:08:08.955Z,3.20
2023-03-13T08:10:12.095Z,2.40
2023-03-13T08:12:13.712Z,3.90
2023-03-13T08:14:15.302Z,2.70
2023-03-13T08:16:18.926Z,2.13
2023-03-13T08:18:20.472Z,3.05
2023-03-13T08:20:22.189Z,2.50
2023-03-13T08:22:23.869Z,2.03
2023-03-13T08:24:25.360Z,3.40
2023-03-13T08:26:29.585Z,2.20
2023-03-13T08:28:31.207Z,2.43
2023-03-13T08:30:32.822Z,2.70
2023-03-13T08:32:34.930Z,1.93
2023-03-13T08:34:36.527Z,4.33
2023-03-13T08:36:38.829Z,2.97
2023-03-13T08:38:41.331Z,3.33
2023-03-13T08:40:42.868Z,3.83
2023-03-13T08:42:45.792Z,3.30
2023-03-13T08:44:47.391Z,3.50
2023-03-13T08:46:49.074Z,3.10
2023-03-13T08:48:50.976Z,3.63
2023-03-13T08:51:03.398Z,4.10
2023-03-13T08:53:04.996Z,3.65
2023-03-13T08:55:07.819Z,4.22
2023-03-13T08:57:09.347Z,4.43
2023-03-13T08:59:12.502Z,2.80
2023-03-13T09:01:14.836Z,3.45
2023-03-13T09:03:16.443Z,2.75
2023-03-13T09:05:18.065Z,4.53
2023-03-13T09:07:19.559Z,3.60
2023-03-13T09:09:22.024Z,2.80
2023-03-13T09:11:25.606Z,3.90
2023-03-13T09:13:29.660Z,3.90
2023-03-13T09:15:34.943Z,3.47
2023-03-13T09:17:36.581Z,2.97
2023-03-13T09:19:43.311Z,3.60
2023-03-13T09:21:49.322Z,4.70
2023-03-13T09:23:51.841Z,7.70
2023-03-13T09:25:55.420Z,3.30
2023-03-13T09:27:56.945Z,3.80
2023-03-13T09:29:58.655Z,3.10
2023-03-13T09:32:01.596Z,3.07
2023-03-13T09:34:03.765Z,3.10
2023-03-13T09:36:05.959Z,3.93
2023-03-13T09:38:07.978Z,3.80
2023-03-13T09:40:15.563Z,2.90
2023-03-13T09:42:20.636Z,2.60
2023-03-13T09:44:26.707Z,3.70
2023-03-13T09:46:34.173Z,4.17
2023-03-13T09:48:41.315Z,3.73
2023-03-13T09:50:47.476Z,5.30
2023-03-13T09:52:52.603Z,4.03
2023-03-13T09:54:58.879Z,3.10
2023-03-13T09:57:07.409Z,2.70
2023-03-13T09:59:19.432Z,2.27
2023-03-13T10:01:26.271Z,4.23
2023-03-13T10:03:30.370Z,1.80
2023-03-13T10:05:34.057Z,3.80
2023-03-13T10:07:36.583Z,2.77
2023-03-13T10:09:38.607Z,3.07
2023-03-13T10:11:47.629Z,3.37
2023-03-13T10:13:55.574Z,3.60
2023-03-13T10:16:01.214Z,3.03
2023-03-13T10:18:13.983Z,2.83
2023-03-13T10:20:22.858Z,2.63
2023-03-13T10:22:28.721Z,3.13
2023-03-13T10:24:35.413Z,2.60
2023-03-13T10:26:37.887Z,4.07
2023-03-13T10:28:39.448Z,5.37
2023-03-13T10:30:46.301Z,2.67
2023-03-13T10:32:48.009Z,2.20
2023-03-13T10:34:52.995Z,2.47
2023-03-13T10:36:58.427Z,3.90
2023-03-13T10:39:01.560Z,2.00
2023-03-13T10:41:18.099Z,3.17
2023-03-13T10:43:22.587Z,2.90
2023-03-13T10:45:25.508Z,3.10
2023-03-13T10:47:32.704Z,2.50
2023-03-13T10:49:46.150Z,4.00
2023-03-13T10:51:49.829Z,3.37
2023-03-13T10:53:51.704Z,3.03
2023-03-13T10:55:57.691Z,3.50
2023-03-13T10:58:01.504Z,5.57
2023-03-13T11:00:23.288Z,3.67
2023-03-13T11:02:28.477Z,2.20
2023-03-13T11:04:32.920Z,2.80
2023-03-13T11:06:35.312Z,3.33
2023-03-13T11:08:37.378Z,3.43
2023-03-13T11:10:51.999Z,3.10
2023-03-13T11:12:56.854Z,4.20
2023-03-13T11:14:59.962Z,2.50
2023-03-13T11:17:09.960Z,7.27
2023-03-13T11:19:39.355Z,4.60
2023-03-13T11:21:49.380Z,4.30
2023-03-13T11:23:58.394Z,3.90
2023-03-13T11:26:10.311Z,4.80
2023-03-13T11:28:34.466Z,2.80
2023-03-13T11:30:59.731Z,3.07
2023-03-13T11:33:04.592Z,5.93
2023-03-13T11:35:20.070Z,3.20
2023-03-13T11:37:22.992Z,3.43
2023-03-13T11:39:40.762Z,4.40
2023-03-13T11:41:53.053Z,4.70
2023-03-13T11:44:08.330Z,3.70
2023-03-13T11:46:22.930Z,3.70
2023-03-13T11:48:47.088Z,3.30
2023-03-13T11:50:54.946Z,2.97
2023-03-13T11:53:09.625Z,4.30
2023-03-13T11:55:29.587Z,4.70
2023-03-13T11:57:34.783Z,3.50
2023-03-13T11:59:45.600Z,2.93
2023-03-13T12:01:51.229Z,2.87
2023-03-13T12:03:58.647Z,2.73
2023-03-13T12:06:00.868Z,4.63
2023-03-13T12:08:07.412Z,3.43
2023-03-13T12:10:13.192Z,3.10
2023-03-13T12:12:22.613Z,3.60
2023-03-13T12:14:27.718Z,8.87
2023-03-13T12:16:49.621Z,5.90
2023-03-13T12:18:53.039Z,4.13
2023-03-13T12:21:01.772Z,7.23
2023-03-13T12:23:16.668Z,3.83
2023-03-13T12:25:23.641Z,6.00
2023-03-13T12:27:31.118Z,4.10
2023-03-13T12:29:44.984Z,4.63
2023-03-13T12:31:53.489Z,2.77
2023-03-13T12:33:59.893Z,3.20
2023-03-13T12:36:06.683Z,6.17
2023-03-13T12:38:14.825Z,6.67
2023-03-13T12:40:26.115Z,5.20
2023-03-13T12:42:38.404Z,4.40
2023-03-13T12:44:40.630Z,3.20
2023-03-13T12:46:46.477Z,4.93
2023-03-13T12:49:13.102Z,4.33
2023-03-13T12:51:32.540Z,3.70
2023-03-13T12:54:07.886Z,5.43
2023-03-13T12:56:33.743Z,6.03
2023-03-13T12:58:44.139Z,3.80
2023-03-13T13:00:47.840Z,4.23
2023-03-13T13:03:04.401Z,5.80
2023-03-13T13:05:19.227Z,5.23
2023-03-13T13:07:24.536Z,4.00
2023-03-13T13:09:27.777Z,3.60
2023-03-13T13:11:54.488Z,4.50
2023-03-13T13:13:56.079Z,4.20
2023-03-13T13:16:04.849Z,3.43
2023-03-13T13:18:16.242Z,2.50
2023-03-13T13:20:47.526Z,3.93
2023-03-13T13:22:52.364Z,3.23
2023-03-13T13:24:55.914Z,5.23
2023-03-13T13:26:57.593Z,2.60
2023-03-13T13:29:00.466Z,4.17
2023-03-13T13:31:02.413Z,3.37
2023-03-13T13:33:34.716Z,3.10
2023-03-13T13:35:36.940Z,2.60
2023-03-13T13:37:40.710Z,6.83
2023-03-13T13:39:44.838Z,3.30
2023-03-13T13:41:46.470Z,7.30
2023-03-13T13:43:49.863Z,4.27
2023-03-13T13:46:00.922Z,6.60
2023-03-13T13:48:25.512Z,4.17
2023-03-13T13:50:28.493Z,3.30
2023-03-13T13:52:35.957Z,7.50
2023-03-13T13:54:55.323Z,3.27
2023-03-13T13:56:59.216Z,4.47
2023-03-13T13:59:05.798Z,3.70
2023-03-13T14:01:16.214Z,3.13
2023-03-13T14:03:22.903Z,5.60
2023-03-13T14:05:26.556Z,4.53
2023-03-13T14:07:32.165Z,2.93
2023-03-13T14:09:42.944Z,2.73
2023-03-13T14:11:45.975Z,2.87
2023-03-13T14:14:08.906Z,2.70
2023-03-13T14:16:25.116Z,3.57
2023-03-13T14:18:28.473Z,4.27
2023-03-13T14:20:33.502Z,2.80
2023-03-13T14:22:45.606Z,3.70
2023-03-13T14:24:57.425Z,3.80
2023-03-13T14:27:01.089Z,3.07
2023-03-13T14:29:03.821Z,3.47
2023-03-13T14:31:06.868Z,3.87
2023-03-13T14:33:08.440Z,4.80
2023-03-13T14:35:11.398Z,3.60
2023-03-13T14:37:34.974Z,3.80
2023-03-13T14:39:37.973Z,4.70
2023-03-13T14:41:45.100Z,4.10
2023-03-13T14:43:48.164Z,3.13
2023-03-13T14:45:50.609Z,7.47
2023-03-13T14:47:53.271Z,4.67
2023-03-13T14:50:00.312Z,3.60
2023-03-13T14:52:04.510Z,3.67
2023-03-13T14:54:23.661Z,4.50
2023-03-13T14:56:36.677Z,6.90
2023-03-13T14:58:38.638Z,4.13
2023-03-13T15:00:44.014Z,6.97
2023-03-13T15:02:45.604Z,3.93
2023-03-13T15:04:52.696Z,4.03
2023-03-13T15:07:02.791Z,4.50
2023-03-13T15:09:15.457Z,4.77
2023-03-13T15:11:35.079Z,3.50
2023-03-13T15:13:37.022Z,2.20
2023-03-13T15:15:38.687Z,4.67
2023-03-13T15:17:41.700Z,5.27
2023-03-13T15:19:47.743Z,3.50
2023-03-13T15:21:51.166Z,3.90
2023-03-13T15:23:55.509Z,3.10
2023-03-13T15:25:57.047Z,4.90
2023-03-13T15:27:58.701Z,3.50
2023-03-13T15:30:00.361Z,3.30
2023-03-13T15:32:01.992Z,3.63
2023-03-13T15:34:10.636Z,4.83
2023-03-13T15:36:12.317Z,4.73
2023-03-13T15:38:16.047Z,3.80
2023-03-13T15:40:18.606Z,3.43
2023-03-13T15:42:20.580Z,3.97
2023-03-13T15:44:22.114Z,3.37
2023-03-13T15:46:25.381Z,7.17
2023-03-13T15:48:29.317Z,4.83
2023-03-13T15:50:35.265Z,6.63
2023-03-13T15:52:36.800Z,7.77
2023-03-13T15:54:38.417Z,8.07
2023-03-13T15:56:40.100Z,5.50
2023-03-13T15:58:41.778Z,3.20
2023-03-13T16:00:44.560Z,4.20
2023-03-13T16:02:46.162Z,2.23
2023-03-13T16:04:48.244Z,6.17
2023-03-13T16:06:51.373Z,2.10
2023-03-13T16:08:52.959Z,3.90
2023-03-13T16:10:55.119Z,3.40
2023-03-13T16:12:57.080Z,2.63
2023-03-13T16:14:58.633Z,6.83
2023-03-13T16:17:00.975Z,5.57
2023-03-13T16:19:02.599Z,3.67
2023-03-13T16:21:04.646Z,4.17
2023-03-13T16:23:07.576Z,5.00
2023-03-13T16:25:09.994Z,3.80
2023-03-13T16:27:14.342Z,3.17
2023-03-13T16:29:16.834Z,2.03
2023-03-13T16:31:20.972Z,3.90
2023-03-13T16:33:22.616Z,2.20
2023-03-13T16:35:25.896Z,2.07
2023-03-13T16:37:27.506Z,2.40
2023-03-13T16:39:30.475Z,2.27
2023-03-13T16:41:32.546Z,2.27
2023-03-13T16:43:34.120Z,2.40
2023-03-13T16:45:35.711Z,1.87
2023-03-13T16:47:37.644Z,2.20
2023-03-13T16:49:39.242Z,3.03
2023-03-13T16:51:41.428Z,2.00
2023-03-13T16:53:43.677Z,2.73
2023-03-13T16:55:46.676Z,3.03
2023-03-13T16:57:48.509Z,6.30
2023-03-13T16:59:50.114Z,2.47
2023-03-13T17:01:51.686Z,4.27
2023-03-13T17:03:53.241Z,2.53
2023-03-13T17:05:55.163Z,2.10
2023-03-13T17:07:56.966Z,2.53
2023-03-13T17:09:58.747Z,3.17
2023-03-13T17:12:01.804Z,6.13
2023-03-13T17:14:03.408Z,3.53
2023-03-13T17:16:12.110Z,3.50
2023-03-13T17:18:13.941Z,3.80
2023-03-13T17:20:16.185Z,3.20
2023-03-13T17:22:18.078Z,6.00
2023-03-13T17:24:19.629Z,4.97
2023-03-13T17:26:24.389Z,3.83
2023-03-13T17:28:27.406Z,3.90
2023-03-13T17:30:31.039Z,4.83
2023-03-13T17:32:32.680Z,4.47
2023-03-13T17:34:34.294Z,4.57
2023-03-13T17:36:36.418Z,2.20
2023-03-13T17:38:38.087Z,2.10
2023-03-13T17:40:39.614Z,4.30
2023-03-13T17:42:41.166Z,4.60
2023-03-13T17:44:44.108Z,4.47
2023-03-13T17:46:49.464Z,3.53
2023-03-13T17:48:52.746Z,3.17
2023-03-13T17:50:54.352Z,3.73
2023-03-13T17:52:56.128Z,3.00
2023-03-13T17:54:57.723Z,2.80
2023-03-13T17:56:59.405Z,3.50
2023-03-13T17:59:01.175Z,7.30
2023-03-13T18:01:04.441Z,3.07
2023-03-13T18:03:06.433Z,2.30
2023-03-13T18:05:08.718Z,3.07
2023-03-13T18:07:21.156Z,4.13
2023-03-13T18:09:22.901Z,4.90
2023-03-13T18:11:26.120Z,2.70
2023-03-13T18:13:27.676Z,4.60
2023-03-13T18:15:29.242Z,6.80
2023-03-13T18:17:32.130Z,6.80
2023-03-13T18:19:33.716Z,5.20
2023-03-13T18:21:35.461Z,3.73
2023-03-13T18:23:37.006Z,4.30
2023-03-13T18:25:38.606Z,3.60
2023-03-13T18:27:40.574Z,4.70
2023-03-13T18:29:42.583Z,3.63
2023-03-13T18:31:44.263Z,3.60
2023-03-13T18:33:48.044Z,2.93
2023-03-13T18:35:49.762Z,3.47
2023-03-13T18:37:51.396Z,3.20
2023-03-13T18:39:53.178Z,4.07
2023-03-13T18:41:54.770Z,3.10
2023-03-13T18:43:56.286Z,2.27
2023-03-13T18:45:57.987Z,4.03
2023-03-13T18:47:59.507Z,3.30
2023-03-13T18:50:02.386Z,3.53
2023-03-13T18:52:04.316Z,3.50
2023-03-13T18:54:05.887Z,4.80
2023-03-13T18:56:15.293Z,2.60
2023-03-13T18:58:16.946Z,4.30
2023-03-13T19:00:20.551Z,4.70
2023-03-13T19:02:22.185Z,7.27
2023-03-13T19:04:23.879Z,5.83
2023-03-13T19:06:28.230Z,3.70
2023-03-13T19:08:29.785Z,3.67
2023-03-13T19:10:33.341Z,4.03
2023-03-13T19:12:34.918Z,3.47
2023-03-13T19:14:36.464Z,2.90
2023-03-13T19:16:42.819Z,2.60
2023-03-13T19:18:45.150Z,6.83
2023-03-13T19:20:52.737Z,4.37
2023-03-13T19:22:56.342Z,4.33
2023-03-13T19:24:57.925Z,4.13
2023-03-13T19:26:59.605Z,3.27
2023-03-13T19:29:01.329Z,2.40
2023-03-13T19:31:02.911Z,2.47
2023-03-13T19:33:04.517Z,5.77
2023-03-13T19:35:07.182Z,3.70
2023-03-13T19:37:10.509Z,3.47
2023-03-13T19:39:16.147Z,4.00
2023-03-13T19:41:17.634Z,6.30
2023-03-13T19:43:19.261Z,3.37
2023-03-13T19:45:21.223Z,3.10
2023-03-13T19:47:22.958Z,4.20
2023-03-13T19:49:24.491Z,2.63
2023-03-13T19:51:27.468Z,5.77
2023-03-13T19:53:29.500Z,1.87
2023-03-13T19:55:32.546Z,1.80
2023-03-13T19:57:34.124Z,2.87
2023-03-13T19:59:35.696Z,2.00
2023-03-13T20:01:37.355Z,3.97
2023-03-13T20:03:39.289Z,3.87
2023-03-13T20:05:40.897Z,2.60
2023-03-13T20:07:42.451Z,2.27
2023-03-13T20:09:44.050Z,2.30
2023-03-13T20:11:47.388Z,3.33
2023-03-13T20:13:49.636Z,3.23
2023-03-13T20:15:51.225Z,3.80
2023-03-13T20:17:53.044Z,2.27
2023-03-13T20:19:54.655Z,1.83
2023-03-13T20:21:57.895Z,3.57
2023-03-13T20:24:00.054Z,2.57
2023-03-13T20:26:09.198Z,2.10
2023-03-13T20:28:12.501Z,3.17
2023-03-13T20:30:14.322Z,2.53
2023-03-13T20:32:15.918Z,1.73
2023-03-13T20:34:17.478Z,3.70
2023-03-13T20:36:20.524Z,3.83
2023-03-13T20:38:22.108Z,1.63
2023-03-13T20:40:23.702Z,2.90
2023-03-13T20:42:25.309Z,3.00
2023-03-13T20:44:28.517Z,4.00
2023-03-13T20:46:30.105Z,2.17
2023-03-13T20:48:32.148Z,2.43
2023-03-13T20:50:34.728Z,2.40
2023-03-13T20:52:39.281Z,3.70
2023-03-13T20:54:40.961Z,2.40
2023-03-13T20:56:42.541Z,2.60
2023-03-13T20:58:44.089Z,1.60
2023-03-13T21:00:47.708Z,2.63
2023-03-13T21:02:49.864Z,3.27
2023-03-13T21:04:51.437Z,2.60
2023-03-13T21:06:53.040Z,5.10
2023-03-13T21:08:54.940Z,2.70
2023-03-13T21:10:56.475Z,2.87
2023-03-13T21:12:58.148Z,1.60
2023-03-13T21:14:59.768Z,2.57
2023-03-13T21:17:02.772Z,2.80
2023-03-13T21:19:04.372Z,2.07
2023-03-13T21:21:08.175Z,3.00
2023-03-13T21:23:09.815Z,3.30
2023-03-13T21:25:11.953Z,2.30
2023-03-13T21:27:13.502Z,1.60
2023-03-13T21:29:15.148Z,2.53
2023-03-13T21:31:18.105Z,2.20
2023-03-13T21:33:21.152Z,1.73
2023-03-13T21:35:23.117Z,2.20
2023-03-13T21:37:31.259Z,2.33
2023-03-13T21:39:33.155Z,2.53
2023-03-13T21:41:35.115Z,2.03
2023-03-13T21:43:36.784Z,2.10
2023-03-13T21:45:38.366Z,2.00
2023-03-13T21:47:40.017Z,2.07
2023-03-13T21:49:52.493Z,1.87
2023-03-13T21:51:54.476Z,2.30
2023-03-13T21:53:56.348Z,2.00
2023-03-13T21:55:57.956Z,2.30
2023-03-13T21:57:59.554Z,2.20
2023-03-13T22:00:01.247Z,2.20
2023-03-13T22:02:03.153Z,1.97
2023-03-13T22:04:04.845Z,1.70
2023-03-13T22:06:13.275Z,1.70
2023-03-13T22:08:15.220Z,2.33
2023-03-13T22:10:17.091Z,2.80
2023-03-13T22:12:18.750Z,2.20
2023-03-13T22:14:23.528Z,1.67
2023-03-13T22:16:25.258Z,1.90
2023-03-13T22:18:27.002Z,1.77
2023-03-13T22:20:28.760Z,1.93
2023-03-13T22:22:32.169Z,2.20
2023-03-13T22:24:34.031Z,3.53
2023-03-13T22:26:36.193Z,2.70
2023-03-13T22:28:38.006Z,1.63
2023-03-13T22:30:40.161Z,1.93
2023-03-13T22:32:48.116Z,3.00
2023-03-13T22:34:50.261Z,2.70
2023-03-13T22:36:51.911Z,1.67
2023-03-13T22:38:54.845Z,1.90
2023-03-13T22:40:58.180Z,1.90
2023-03-13T22:43:01.778Z,1.60
2023-03-13T22:45:04.461Z,2.13
2023-03-13T22:47:06.297Z,2.47
2023-03-13T22:49:07.869Z,1.87
2023-03-13T22:51:11.656Z,1.90
2023-03-13T22:53:14.059Z,1.60
2023-03-13T22:55:18.583Z,2.90
2023-03-13T22:57:20.240Z,1.93
2023-03-13T22:59:21.891Z,1.60
2023-03-13T23:01:23.519Z,2.60
2023-03-13T23:03:25.159Z,2.00
2023-03-13T23:05:26.728Z,2.73
2023-03-13T23:07:29.967Z,2.13
2023-03-13T23:09:34.657Z,1.40
2023-03-13T23:11:37.842Z,1.50
2023-03-13T23:13:39.721Z,1.60
2023-03-13T23:15:57.438Z,1.90
2023-03-13T23:18:05.594Z,2.03
2023-03-13T23:20:08.437Z,2.00
2023-03-13T23:22:10.045Z,1.73
2023-03-13T23:24:11.997Z,2.13
2023-03-13T23:26:15.674Z,1.90
2023-03-13T23:28:18.609Z,2.13
2023-03-13T23:30:20.715Z,1.93
2023-03-13T23:32:22.272Z,2.10
2023-03-13T23:34:24.072Z,1.67
2023-03-13T23:36:26.040Z,3.20
2023-03-13T23:38:27.538Z,2.40
2023-03-13T23:40:29.154Z,2.20
2023-03-13T23:42:30.720Z,2.80
2023-03-13T23:44:33.658Z,1.97
2023-03-13T23:46:35.272Z,3.03
2023-03-13T23:48:36.829Z,2.92
2023-03-13T23:50:38.451Z,6.77
2023-03-13T23:52:40.784Z,5.35
2023-03-13T23:54:42.317Z,2.85
2023-03-13T23:56:43.976Z,3.93
2023-03-13T23:58:45.755Z,2.78
